createdAt,value
2019-05-18T00:00:11.177Z,82.47
2019-05-18T00:02:40.098Z,82.53
2019-05-18T00:05:10.563Z,82.53
2019-05-18T00:07:40.006Z,83.16
2019-05-18T00:10:09.524Z,84.00
2019-05-18T00:12:39.117Z,83.73
2019-05-18T00:15:09.148Z,84.59
2019-05-18T00:17:38.058Z,84.78
2019-05-18T00:20:07.558Z,84.12
2019-05-18T00:22:36.467Z,83.77
2019-05-18T00:25:07.093Z,84.40
2019-05-18T00:27:35.975Z,84.13
2019-05-18T00:30:06.966Z,85.80
2019-05-18T00:32:35.907Z,85.04
2019-05-18T00:35:07.350Z,85.19
2019-05-18T00:37:36.246Z,85.61
2019-05-18T00:40:07.172Z,84.96
2019-05-18T00:42:36.078Z,84.53
2019-05-18T00:45:07.522Z,83.18
2019-05-18T00:47:41.497Z,83.87
2019-05-18T00:50:07.534Z,83.68
2019-05-18T00:52:36.560Z,84.11
2019-05-18T00:55:08.157Z,84.83
2019-05-18T00:57:37.019Z,83.89
2019-05-18T01:00:10.156Z,83.71
2019-05-18T01:02:39.093Z,84.75
2019-05-18T01:05:08.686Z,84.97
2019-05-18T01:07:37.588Z,84.33
2019-05-18T01:10:07.994Z,83.99
2019-05-18T01:12:36.914Z,84.59
2019-05-18T01:15:11.369Z,85.13
2019-05-18T01:17:40.217Z,84.56
2019-05-18T01:20:11.367Z,85.23
2019-05-18T01:22:40.257Z,86.12
2019-05-18T01:25:09.974Z,84.60
2019-05-18T01:27:38.851Z,84.61
2019-05-18T01:30:09.452Z,84.48
2019-05-18T01:32:38.380Z,84.28
2019-05-18T01:35:08.347Z,85.04
2019-05-18T01:37:37.285Z,84.07
2019-05-18T01:40:07.404Z,83.73
2019-05-18T01:42:36.295Z,85.20
2019-05-18T01:45:16.248Z,84.76
2019-05-18T01:47:37.968Z,83.77
2019-05-18T01:50:07.369Z,83.78
2019-05-18T01:52:36.262Z,84.67
2019-05-18T01:55:06.522Z,85.34
2019-05-18T01:57:35.379Z,86.57
2019-05-18T02:00:05.997Z,85.08
2019-05-18T02:02:34.898Z,84.95
2019-05-18T02:05:04.891Z,84.20
2019-05-18T02:07:33.705Z,84.44
2019-05-18T02:10:02.801Z,83.86
2019-05-18T02:12:31.797Z,84.43
2019-05-18T02:15:02.766Z,84.88
2019-05-18T02:17:31.659Z,84.82
2019-05-18T02:20:00.514Z,84.35
2019-05-18T02:22:29.408Z,84.12
2019-05-18T02:24:58.298Z,84.85
2019-05-18T02:27:27.189Z,84.39
2019-05-18T02:29:56.080Z,84.20
2019-05-18T02:32:24.972Z,83.84
2019-05-18T02:34:53.867Z,84.21
2019-05-18T02:37:22.755Z,83.93
2019-05-18T02:39:53.289Z,83.82
2019-05-18T02:42:22.178Z,83.79
2019-05-18T02:44:52.096Z,84.69
2019-05-18T02:47:22.105Z,86.92
2019-05-18T02:49:50.999Z,84.44
2019-05-18T02:52:19.891Z,84.44
2019-05-18T02:54:48.780Z,84.68
2019-05-18T02:57:17.673Z,84.90
2019-05-18T02:59:46.563Z,84.62
2019-05-18T03:02:15.456Z,84.27
2019-05-18T03:04:44.344Z,83.89
2019-05-18T03:07:13.240Z,85.47
2019-05-18T03:09:42.233Z,85.46
2019-05-18T03:12:12.863Z,84.92
2019-05-18T03:14:41.758Z,85.13
2019-05-18T03:17:11.475Z,84.34
2019-05-18T03:19:40.355Z,84.17
2019-05-18T03:22:10.064Z,83.98
2019-05-18T03:24:38.956Z,84.09
2019-05-18T03:27:08.466Z,84.37
2019-05-18T03:29:37.352Z,84.06
2019-05-18T03:32:06.244Z,83.86
2019-05-18T03:34:35.136Z,84.12
2019-05-18T03:37:04.025Z,84.19
2019-05-18T03:39:32.917Z,85.09
2019-05-18T03:42:01.809Z,85.87
2019-05-18T03:44:30.699Z,85.01
2019-05-18T03:46:59.592Z,84.19
2019-05-18T03:49:28.572Z,84.07
2019-05-18T03:51:57.475Z,84.40
2019-05-18T03:54:26.367Z,85.28
2019-05-18T03:56:55.259Z,85.44
2019-05-18T03:59:24.152Z,85.46
2019-05-18T04:01:53.217Z,85.35
2019-05-18T04:04:22.142Z,85.10
2019-05-18T04:06:51.027Z,84.51
2019-05-18T04:09:19.918Z,84.75
2019-05-18T04:11:48.810Z,84.91
2019-05-18T04:14:17.702Z,85.53
2019-05-18T04:16:46.591Z,84.42
2019-05-18T04:19:15.486Z,84.62
2019-05-18T04:21:44.374Z,86.07
2019-05-18T04:24:13.264Z,85.22
2019-05-18T04:26:42.155Z,85.01
2019-05-18T04:29:11.357Z,83.98
2019-05-18T04:31:40.247Z,83.88
2019-05-18T04:34:09.547Z,83.60
2019-05-18T04:36:38.462Z,84.01
2019-05-18T04:39:07.839Z,84.10
2019-05-18T04:41:36.738Z,84.08
2019-05-18T04:44:05.829Z,85.00
2019-05-18T04:46:34.719Z,84.46
2019-05-18T04:49:03.614Z,85.32
2019-05-18T04:51:32.505Z,85.70
2019-05-18T04:54:01.600Z,87.52
2019-05-18T04:56:30.489Z,85.95
2019-05-18T04:58:59.381Z,85.63
2019-05-18T05:01:28.388Z,86.75
2019-05-18T05:03:57.264Z,85.18
2019-05-18T05:06:26.155Z,84.16
2019-05-18T05:08:55.046Z,84.22
2019-05-18T05:11:23.940Z,84.08
2019-05-18T05:13:52.828Z,83.74
2019-05-18T05:16:21.719Z,84.41
2019-05-18T05:18:50.515Z,84.27
2019-05-18T05:21:19.399Z,83.86
2019-05-18T05:23:48.292Z,83.90
2019-05-18T05:26:17.183Z,83.36
2019-05-18T05:28:46.073Z,82.99
2019-05-18T05:31:14.966Z,83.86
2019-05-18T05:33:43.856Z,83.74
2019-05-18T05:36:12.746Z,84.00
2019-05-18T05:38:41.754Z,84.15
2019-05-18T05:41:16.382Z,83.32
2019-05-18T05:43:41.981Z,83.25
2019-05-18T05:46:11.178Z,82.79
2019-05-18T05:48:40.071Z,82.80
2019-05-18T05:51:09.064Z,83.29
2019-05-18T05:53:37.961Z,83.71
2019-05-18T05:56:06.844Z,83.68
2019-05-18T05:58:35.840Z,83.87
2019-05-18T06:01:04.730Z,83.12
2019-05-18T06:03:33.623Z,82.62
2019-05-18T06:06:02.511Z,82.29
2019-05-18T06:08:31.405Z,81.83
2019-05-18T06:11:00.469Z,82.47
2019-05-18T06:13:29.390Z,82.08
2019-05-18T06:15:58.280Z,81.47
2019-05-18T06:18:27.172Z,81.48
2019-05-18T06:20:56.063Z,81.48
2019-05-18T06:23:24.959Z,80.81
2019-05-18T06:25:53.847Z,80.29
2019-05-18T06:28:22.755Z,80.62
2019-05-18T06:30:51.634Z,81.11
2019-05-18T06:33:21.654Z,81.16
2019-05-18T06:35:50.539Z,80.58
2019-05-18T06:38:19.428Z,80.87
2019-05-18T06:40:48.338Z,80.40
2019-05-18T06:43:17.214Z,79.79
2019-05-18T06:45:46.104Z,79.29
2019-05-18T06:48:14.996Z,79.45
2019-05-18T06:50:47.886Z,79.70
2019-05-18T06:53:17.179Z,80.43
2019-05-18T06:55:46.175Z,79.96
2019-05-18T06:58:15.971Z,78.89
2019-05-18T07:00:44.876Z,79.03
2019-05-18T07:03:13.868Z,79.81
2019-05-18T07:05:42.773Z,79.53
2019-05-18T07:08:12.470Z,79.37
2019-05-18T07:10:41.372Z,78.37
2019-05-18T07:13:11.285Z,78.68
2019-05-18T07:15:40.168Z,79.03
2019-05-18T07:18:09.366Z,79.19
2019-05-18T07:20:38.259Z,79.07
2019-05-18T07:23:07.875Z,78.47
2019-05-18T07:25:36.757Z,79.79
2019-05-18T07:28:05.653Z,79.58
2019-05-18T07:30:34.643Z,79.03
2019-05-18T07:33:03.535Z,78.52
2019-05-18T07:35:32.426Z,78.81
2019-05-18T07:38:01.321Z,78.87
2019-05-18T07:40:31.742Z,78.12
2019-05-18T07:43:00.671Z,78.85
2019-05-18T07:45:29.641Z,79.55
2019-05-18T07:47:58.523Z,78.39
2019-05-18T07:50:27.530Z,80.08
2019-05-18T07:52:56.571Z,79.02
2019-05-18T07:55:25.397Z,78.02
2019-05-18T07:57:54.786Z,77.79
2019-05-18T08:00:23.695Z,76.82
2019-05-18T08:02:52.581Z,76.38
2019-05-18T08:05:22.497Z,77.02
2019-05-18T08:07:51.581Z,76.12
2019-05-18T08:10:34.706Z,75.90
2019-05-18T08:13:03.612Z,77.15
2019-05-18T08:15:32.823Z,78.82
2019-05-18T08:18:01.907Z,76.82
2019-05-18T08:20:30.799Z,75.33
2019-05-18T08:22:59.686Z,75.30
2019-05-18T08:25:28.687Z,73.26
2019-05-18T08:27:57.569Z,72.97
2019-05-18T08:30:26.461Z,72.67
2019-05-18T08:32:55.354Z,73.19
2019-05-18T08:35:27.133Z,73.17
2019-05-18T08:37:54.879Z,71.83
2019-05-18T08:40:23.776Z,73.06
2019-05-18T08:42:52.657Z,71.76
2019-05-18T08:45:21.656Z,72.88
2019-05-18T08:47:50.542Z,71.87
2019-05-18T08:50:19.345Z,71.14
2019-05-18T08:52:48.224Z,71.39
2019-05-18T08:55:17.283Z,70.73
2019-05-18T08:57:46.312Z,70.95
2019-05-18T09:00:15.620Z,71.87
2019-05-18T09:02:44.504Z,74.19
2019-05-18T09:05:14.263Z,72.36
2019-05-18T09:07:43.106Z,70.78
2019-05-18T09:10:13.623Z,70.64
2019-05-18T09:12:42.529Z,69.27
2019-05-18T09:15:12.863Z,69.60
2019-05-18T09:17:41.742Z,69.46
2019-05-18T09:20:12.447Z,69.61
2019-05-18T09:22:41.369Z,67.99
2019-05-18T09:25:11.282Z,71.85
2019-05-18T09:27:40.175Z,68.16
2019-05-18T09:30:11.093Z,66.14
2019-05-18T09:32:40.113Z,66.51
2019-05-18T09:35:10.371Z,67.00
2019-05-18T09:37:39.227Z,68.23
2019-05-18T09:40:09.665Z,64.91
2019-05-18T09:42:38.846Z,64.57
2019-05-18T09:45:09.633Z,67.18
2019-05-18T09:47:38.675Z,65.96
2019-05-18T09:50:09.928Z,63.96
2019-05-18T09:52:46.601Z,63.69
2019-05-18T09:55:10.174Z,63.52
2019-05-18T09:57:39.051Z,62.45
2019-05-18T10:00:09.773Z,62.94
2019-05-18T10:02:38.676Z,64.10
2019-05-18T10:05:08.068Z,63.58
2019-05-18T10:07:36.881Z,60.99
2019-05-18T10:10:09.367Z,63.67
2019-05-18T10:12:38.515Z,63.23
2019-05-18T10:15:08.705Z,66.86
2019-05-18T10:17:39.918Z,64.78
2019-05-18T10:20:10.243Z,65.82
2019-05-18T10:22:53.486Z,65.30
2019-05-18T10:25:11.359Z,64.88
2019-05-18T10:27:40.183Z,64.17
2019-05-18T10:30:11.856Z,64.54
2019-05-18T10:32:40.666Z,63.62
2019-05-18T10:35:10.356Z,64.12
2019-05-18T10:37:39.236Z,65.36
2019-05-18T10:40:09.351Z,64.21
2019-05-18T10:42:38.344Z,62.76
2019-05-18T10:45:11.874Z,64.29
2019-05-18T10:47:40.666Z,63.49
2019-05-18T10:50:11.186Z,63.62
2019-05-18T10:52:40.074Z,64.57
2019-05-18T10:55:09.645Z,64.54
2019-05-18T10:57:38.455Z,64.31
2019-05-18T11:00:11.988Z,65.81
2019-05-18T11:02:42.898Z,63.01
2019-05-18T11:05:12.394Z,62.64
2019-05-18T11:07:42.822Z,61.77
2019-05-18T11:10:12.831Z,61.79
2019-05-18T11:12:41.732Z,62.48
2019-05-18T11:15:11.754Z,63.92
2019-05-18T11:17:40.849Z,64.09
2019-05-18T11:20:10.765Z,63.34
2019-05-18T11:22:39.860Z,63.48
2019-05-18T11:25:09.898Z,64.59
2019-05-18T11:27:38.764Z,63.14
2019-05-18T11:30:10.252Z,64.72
2019-05-18T11:32:39.462Z,62.27
2019-05-18T11:35:09.857Z,60.03
2019-05-18T11:37:38.831Z,62.39
2019-05-18T11:40:08.322Z,61.95
2019-05-18T11:42:37.495Z,61.18
2019-05-18T11:45:11.430Z,60.27
2019-05-18T11:47:40.338Z,61.57
2019-05-18T11:50:11.296Z,63.67
2019-05-18T11:52:40.371Z,62.30
2019-05-18T11:55:10.750Z,64.72
2019-05-18T11:57:39.588Z,64.72
2019-05-18T12:00:11.482Z,63.17
2019-05-18T12:02:40.339Z,61.75
2019-05-18T12:05:10.592Z,61.74
2019-05-18T12:07:39.555Z,60.13
2019-05-18T12:10:10.612Z,61.21
2019-05-18T12:12:39.727Z,61.13
2019-05-18T12:15:10.288Z,60.10
2019-05-18T12:17:39.119Z,61.91
2019-05-18T12:20:09.522Z,61.25
2019-05-18T12:22:38.544Z,62.50
2019-05-18T12:25:08.644Z,62.77
2019-05-18T12:27:37.758Z,62.69
2019-05-18T12:30:08.512Z,61.70
2019-05-18T12:32:37.376Z,61.66
2019-05-18T12:35:08.563Z,59.68
2019-05-18T12:37:37.361Z,60.61
2019-05-18T12:40:09.950Z,61.46
2019-05-18T12:42:38.886Z,61.88
2019-05-18T12:45:09.481Z,62.30
2019-05-18T12:47:38.505Z,61.85
2019-05-18T12:50:08.212Z,62.78
2019-05-18T12:52:37.211Z,63.34
2019-05-18T12:55:07.900Z,64.39
2019-05-18T12:57:37.489Z,62.40
2019-05-18T13:00:11.067Z,62.47
2019-05-18T13:02:39.945Z,63.16
2019-05-18T13:05:11.174Z,60.65
2019-05-18T13:07:39.976Z,61.05
2019-05-18T13:10:11.701Z,60.84
2019-05-18T13:12:40.562Z,59.28
2019-05-18T13:15:12.171Z,60.29
2019-05-18T13:17:41.172Z,59.68
2019-05-18T13:20:12.007Z,60.69
2019-05-18T13:22:41.106Z,60.23
2019-05-18T13:25:10.938Z,59.30
2019-05-18T13:27:40.285Z,60.69
2019-05-18T13:30:11.870Z,60.27
2019-05-18T13:32:41.340Z,60.42
2019-05-18T13:35:11.502Z,61.43
2019-05-18T13:37:40.396Z,60.76
2019-05-18T13:40:11.519Z,60.75
2019-05-18T13:42:40.441Z,59.75
2019-05-18T13:45:12.146Z,59.95
2019-05-18T13:47:40.987Z,60.05
2019-05-18T13:50:12.929Z,60.82
2019-05-18T13:52:41.938Z,60.16
2019-05-18T13:55:11.254Z,59.13
2019-05-18T13:57:40.126Z,59.65
2019-05-18T14:00:10.372Z,59.16
2019-05-18T14:02:39.238Z,59.60
2019-05-18T14:05:09.529Z,59.25
2019-05-18T14:07:38.366Z,58.73
2019-05-18T14:10:12.197Z,58.44
2019-05-18T14:12:39.724Z,58.07
2019-05-18T14:15:10.380Z,57.45
2019-05-18T14:17:39.209Z,58.22
2019-05-18T14:20:09.094Z,57.60
2019-05-18T14:22:38.011Z,56.18
2019-05-18T14:25:18.747Z,57.70
2019-05-18T14:27:38.286Z,57.95
2019-05-18T14:30:07.978Z,59.68
2019-05-18T14:32:36.888Z,59.51
2019-05-18T14:35:07.188Z,58.27
2019-05-18T14:37:36.084Z,58.55
2019-05-18T14:40:09.656Z,55.48
2019-05-18T14:42:38.601Z,57.63
2019-05-18T14:45:08.206Z,57.28
2019-05-18T14:47:37.494Z,57.56
2019-05-18T14:50:07.040Z,57.29
2019-05-18T14:52:36.503Z,56.39
2019-05-18T14:55:07.105Z,60.27
2019-05-18T14:57:36.047Z,62.29
2019-05-18T15:00:06.362Z,61.28
2019-05-18T15:02:35.258Z,61.85
2019-05-18T15:05:05.170Z,62.42
2019-05-18T15:07:34.064Z,62.90
2019-05-18T15:10:02.951Z,62.29
2019-05-18T15:12:31.844Z,61.04
2019-05-18T15:15:00.642Z,62.47
2019-05-18T15:17:31.075Z,64.62
2019-05-18T15:20:00.078Z,62.88
2019-05-18T15:24:56.417Z,62.97
2019-05-18T15:27:25.291Z,63.59
2019-05-18T15:29:54.183Z,64.49
2019-05-18T15:32:23.076Z,62.79
2019-05-18T15:34:51.967Z,63.59
2019-05-18T15:37:20.856Z,63.17
2019-05-18T15:39:49.674Z,63.47
2019-05-18T15:42:18.639Z,62.19
2019-05-18T15:44:47.531Z,62.62
2019-05-18T15:47:16.422Z,62.62
2019-05-18T15:49:45.312Z,63.50
2019-05-18T15:52:14.308Z,61.90
2019-05-18T15:54:43.198Z,62.02
2019-05-18T15:57:12.498Z,61.96
2019-05-18T15:59:41.393Z,61.87
2019-05-18T16:02:10.793Z,61.98
2019-05-18T16:04:39.690Z,63.04
2019-05-18T16:07:08.883Z,64.67
2019-05-18T16:09:37.778Z,63.39
2019-05-18T16:12:07.486Z,62.68
2019-05-18T16:14:36.384Z,63.01
2019-05-18T16:17:05.376Z,62.45
2019-05-18T16:19:34.262Z,62.42
2019-05-18T16:22:03.364Z,64.26
2019-05-18T16:24:32.458Z,63.25
2019-05-18T16:27:02.781Z,62.87
2019-05-18T16:29:34.527Z,63.77
2019-05-18T16:32:04.768Z,64.92
2019-05-18T16:34:33.651Z,64.70
2019-05-18T16:37:03.977Z,64.28
2019-05-18T16:39:32.864Z,65.66
2019-05-18T16:42:01.759Z,64.93
2019-05-18T16:44:30.648Z,65.95
2019-05-18T16:46:59.540Z,67.12
2019-05-18T16:49:28.428Z,68.27
2019-05-18T16:51:57.326Z,68.92
2019-05-18T16:54:26.417Z,69.01
2019-05-18T16:56:55.240Z,66.99
2019-05-18T16:59:24.097Z,67.09
2019-05-18T17:01:53.000Z,67.46
2019-05-18T17:04:21.983Z,67.19
2019-05-18T17:06:50.872Z,65.98
2019-05-18T17:09:19.763Z,65.40
2019-05-18T17:11:48.696Z,65.64
2019-05-18T17:14:17.547Z,66.10
2019-05-18T17:16:46.438Z,65.61
2019-05-18T17:19:15.330Z,64.24
2019-05-18T17:21:44.226Z,63.86
2019-05-18T17:24:14.546Z,65.06
2019-05-18T17:26:52.235Z,64.34
2019-05-18T17:29:14.106Z,65.93
2019-05-18T17:31:42.958Z,65.13
2019-05-18T17:34:12.678Z,65.72
2019-05-18T17:36:41.569Z,66.54
2019-05-18T17:39:11.585Z,66.09
2019-05-18T17:41:40.472Z,64.65
2019-05-18T17:44:10.491Z,65.67
2019-05-18T17:46:39.385Z,66.98
2019-05-18T17:49:25.602Z,68.51
2019-05-18T17:51:39.838Z,66.48
2019-05-18T17:54:09.652Z,66.46
2019-05-18T17:56:38.558Z,67.63
2019-05-18T17:59:08.147Z,67.63
2019-05-18T18:01:37.035Z,68.28
2019-05-18T18:04:06.025Z,67.14
2019-05-18T18:06:34.917Z,66.79
2019-05-18T18:09:07.624Z,65.97
2019-05-18T18:11:36.489Z,66.46
2019-05-18T18:14:05.888Z,67.73
2019-05-18T18:16:34.786Z,67.68
2019-05-18T18:19:03.671Z,68.70
2019-05-18T18:21:32.604Z,68.60
2019-05-18T18:24:01.666Z,66.95
2019-05-18T18:26:30.557Z,67.02
2019-05-18T18:29:04.158Z,68.78
2019-05-18T18:31:31.513Z,67.54
2019-05-18T18:34:00.500Z,67.29
2019-05-18T18:36:29.493Z,67.16
2019-05-18T18:38:58.390Z,66.18
2019-05-18T18:41:27.306Z,67.03
2019-05-18T18:43:56.271Z,66.50
2019-05-18T18:46:26.594Z,66.56
2019-05-18T18:48:57.020Z,66.31
2019-05-18T18:51:27.368Z,66.06
2019-05-18T18:53:59.650Z,65.71
2019-05-18T18:56:30.554Z,68.17
2019-05-18T18:58:59.445Z,69.51
2019-05-18T19:01:28.357Z,70.61
2019-05-18T19:03:57.228Z,70.01
2019-05-18T19:06:26.135Z,71.46
2019-05-18T19:08:55.014Z,69.50
2019-05-18T19:11:23.911Z,71.98
2019-05-18T19:13:54.228Z,72.13
2019-05-18T19:16:23.104Z,71.76
2019-05-18T19:18:51.913Z,71.77
2019-05-18T19:21:20.705Z,72.06
2019-05-18T19:23:49.590Z,72.30
2019-05-18T19:26:18.480Z,72.09
2019-05-18T19:28:47.370Z,72.38
2019-05-18T19:31:16.268Z,73.26
2019-05-18T19:33:46.089Z,72.65
2019-05-18T19:36:14.996Z,72.87
2019-05-18T19:38:43.858Z,73.99
2019-05-18T19:41:12.751Z,74.02
2019-05-18T19:43:41.549Z,73.55
2019-05-18T19:46:11.228Z,74.19
2019-05-18T19:48:40.041Z,73.99
2019-05-18T19:51:09.439Z,73.91
2019-05-18T19:53:38.332Z,73.66
2019-05-18T19:56:07.943Z,73.50
2019-05-18T19:58:38.269Z,74.11
2019-05-18T20:01:08.282Z,75.07
2019-05-18T20:03:37.172Z,74.93
2019-05-18T20:06:06.165Z,74.51
2019-05-18T20:08:35.106Z,74.13
2019-05-18T20:11:03.982Z,74.96
2019-05-18T20:13:32.949Z,74.56
2019-05-18T20:16:01.837Z,75.31
2019-05-18T20:18:30.731Z,77.04
2019-05-18T20:20:59.726Z,77.04
2019-05-18T20:23:28.717Z,75.87
2019-05-18T20:25:59.146Z,75.61
2019-05-18T20:28:28.027Z,75.01
2019-05-18T20:30:56.928Z,74.82
2019-05-18T20:33:25.812Z,75.07
2019-05-18T20:35:56.031Z,75.60
2019-05-18T20:38:25.226Z,76.09
2019-05-18T20:40:54.125Z,76.85
2019-05-18T20:43:23.135Z,79.67
2019-05-18T20:45:52.038Z,79.05
2019-05-18T20:48:20.910Z,78.30
2019-05-18T20:50:49.804Z,79.25
2019-05-18T20:53:20.219Z,78.39
2019-05-18T20:55:49.210Z,77.35
2019-05-18T20:58:18.102Z,77.75
2019-05-18T21:00:46.999Z,78.33
2019-05-18T21:03:15.789Z,77.98
2019-05-18T21:05:44.683Z,77.49
2019-05-18T21:08:13.567Z,78.40
2019-05-18T21:10:42.568Z,77.58
2019-05-18T21:13:12.890Z,77.24
2019-05-18T21:15:41.774Z,76.88
2019-05-18T21:18:11.383Z,77.41
2019-05-18T21:20:40.579Z,78.02
2019-05-18T21:23:10.306Z,77.71
2019-05-18T21:25:39.286Z,77.92
2019-05-18T21:28:09.198Z,77.98
2019-05-18T21:30:38.124Z,78.08
2019-05-18T21:33:07.800Z,78.33
2019-05-18T21:35:36.695Z,80.58
2019-05-18T21:38:05.689Z,82.59
2019-05-18T21:40:34.579Z,80.72
2019-05-18T21:43:04.125Z,80.78
2019-05-18T21:45:33.860Z,82.75
2019-05-18T21:48:03.590Z,81.63
2019-05-18T21:50:33.149Z,80.49
2019-05-18T21:53:02.109Z,81.12
2019-05-18T21:55:30.996Z,81.24
2019-05-18T21:57:59.896Z,80.79
2019-05-18T22:00:30.621Z,80.49
2019-05-18T22:02:59.517Z,80.65
2019-05-18T22:05:28.339Z,81.02
2019-05-18T22:07:57.195Z,81.07
2019-05-18T22:10:26.316Z,81.50
2019-05-18T22:12:55.301Z,81.69
2019-05-18T22:15:24.174Z,81.52
2019-05-18T22:18:05.359Z,81.27
2019-05-18T22:20:35.592Z,81.48
2019-05-18T22:23:04.880Z,81.33
2019-05-18T22:25:34.793Z,83.13
2019-05-18T22:28:03.792Z,81.96
2019-05-18T22:30:33.061Z,82.32
2019-05-18T22:33:01.978Z,81.70
2019-05-18T22:35:31.424Z,81.01
2019-05-18T22:38:00.273Z,81.67
2019-05-18T22:40:29.165Z,81.84
2019-05-18T22:42:58.054Z,81.79
2019-05-18T22:45:26.850Z,82.95
2019-05-18T22:47:55.734Z,82.96
2019-05-18T22:50:24.731Z,82.38
2019-05-18T22:52:53.630Z,82.23
2019-05-18T22:55:22.520Z,82.50
2019-05-18T22:57:51.405Z,82.30
2019-05-18T23:00:20.522Z,83.12
2019-05-18T23:02:49.493Z,82.33
2019-05-18T23:05:18.399Z,82.24
2019-05-18T23:07:47.273Z,81.63
2019-05-18T23:10:16.784Z,81.15
2019-05-18T23:12:45.772Z,81.57
2019-05-18T23:15:14.868Z,81.29
2019-05-18T23:17:43.758Z,80.58
2019-05-18T23:20:13.368Z,80.43
2019-05-18T23:22:42.258Z,80.28
2019-05-18T23:25:12.489Z,81.52
2019-05-18T23:27:41.371Z,81.96
2019-05-18T23:30:10.783Z,81.35
2019-05-18T23:32:39.770Z,82.07
2019-05-18T23:35:08.881Z,81.72
2019-05-18T23:37:37.757Z,81.61
2019-05-18T23:40:07.057Z,81.41
2019-05-18T23:42:35.948Z,81.81
2019-05-18T23:45:08.636Z,81.74
2019-05-18T23:47:37.518Z,81.79
2019-05-18T23:50:06.906Z,81.83
2019-05-18T23:52:35.814Z,82.65
2019-05-18T23:55:06.605Z,84.78
2019-05-18T23:57:35.455Z,84.10
